createdAt,value
2023-04-30T00:00:18.503Z,10.70
2023-04-30T00:02:46.567Z,10.80
2023-04-30T00:05:14.546Z,10.70
2023-04-30T00:07:42.536Z,10.70
2023-04-30T00:10:12.405Z,10.70
2023-04-30T00:12:40.172Z,10.70
2023-04-30T00:15:08.820Z,10.70
2023-04-30T00:17:36.610Z,10.70
2023-04-30T00:20:04.961Z,10.70
2023-04-30T00:22:33.461Z,10.70
2023-04-30T00:25:01.268Z,10.70
2023-04-30T00:27:31.462Z,10.70
2023-04-30T00:29:59.345Z,10.70
2023-04-30T00:32:27.196Z,10.70
2023-04-30T00:34:55.006Z,10.70
2023-04-30T00:37:22.777Z,10.70
2023-04-30T00:39:50.571Z,10.70
2023-04-30T00:42:18.338Z,10.70
2023-04-30T00:44:47.411Z,10.70
2023-04-30T00:47:15.285Z,10.70
2023-04-30T00:49:43.117Z,10.70
2023-04-30T00:52:10.865Z,10.80
2023-04-30T00:54:38.926Z,10.70
2023-04-30T00:57:08.509Z,10.70
2023-04-30T00:59:36.433Z,10.70
2023-04-30T01:02:05.620Z,10.80
2023-04-30T01:04:33.976Z,10.70
2023-04-30T01:07:03.264Z,10.70
2023-04-30T01:09:32.129Z,10.70
2023-04-30T01:12:08.922Z,10.70
2023-04-30T01:14:46.574Z,10.70
2023-04-30T01:17:22.773Z,10.70
2023-04-30T01:19:50.892Z,10.60
2023-04-30T01:22:32.748Z,10.60
2023-04-30T01:25:15.257Z,10.70
2023-04-30T01:28:03.366Z,10.70
2023-04-30T01:30:32.388Z,10.70
2023-04-30T01:33:00.421Z,10.80
2023-04-30T01:35:45.573Z,10.80
2023-04-30T01:38:35.044Z,10.80
2023-04-30T01:41:12.098Z,10.80
2023-04-30T01:43:49.988Z,10.80
2023-04-30T01:46:25.500Z,10.80
2023-04-30T01:48:58.350Z,10.70
2023-04-30T01:51:31.894Z,10.80
2023-04-30T01:54:07.135Z,10.70
2023-04-30T01:56:41.647Z,10.70
2023-04-30T01:59:11.686Z,10.70
2023-04-30T02:01:39.849Z,10.70
2023-04-30T02:04:07.708Z,10.70
2023-04-30T02:06:35.550Z,10.70
2023-04-30T02:09:05.321Z,10.70
2023-04-30T02:11:33.470Z,10.70
2023-04-30T02:14:01.200Z,10.70
2023-04-30T02:16:30.339Z,10.70
2023-04-30T02:18:58.148Z,10.70
2023-04-30T02:21:27.175Z,10.70
2023-04-30T02:23:55.383Z,10.70
2023-04-30T02:26:23.138Z,10.70
2023-04-30T02:28:50.947Z,10.60
2023-04-30T02:31:18.967Z,10.60
2023-04-30T02:33:48.081Z,10.50
2023-04-30T02:36:15.828Z,10.50
2023-04-30T02:38:43.550Z,10.50
2023-04-30T02:41:11.341Z,10.50
2023-04-30T02:43:39.064Z,10.50
2023-04-30T02:46:06.912Z,10.50
2023-04-30T02:48:34.685Z,10.50
2023-04-30T02:51:04.557Z,10.50
2023-04-30T02:53:32.785Z,10.50
2023-04-30T02:56:00.559Z,10.50
2023-04-30T02:58:28.353Z,10.60
2023-04-30T03:00:56.247Z,10.50
2023-04-30T03:03:24.105Z,10.50
2023-04-30T03:05:51.863Z,10.50
2023-04-30T03:08:20.928Z,10.60
2023-04-30T03:10:48.766Z,10.50
2023-04-30T03:13:16.516Z,10.50
2023-04-30T03:15:44.299Z,10.40
2023-04-30T03:18:12.217Z,10.40
2023-04-30T03:20:40.041Z,10.50
2023-04-30T03:23:07.764Z,10.40
2023-04-30T03:25:36.847Z,10.40
2023-04-30T03:28:04.834Z,10.30
2023-04-30T03:30:32.598Z,10.30
2023-04-30T03:33:00.685Z,10.30
2023-04-30T03:35:28.568Z,10.30
2023-04-30T03:37:56.302Z,10.20
2023-04-30T03:40:24.048Z,10.20
2023-04-30T03:42:53.240Z,10.20
2023-04-30T03:45:21.228Z,10.20
2023-04-30T03:47:49.080Z,10.20
2023-04-30T03:50:19.145Z,10.10
2023-04-30T03:52:46.914Z,10.10
2023-04-30T03:55:14.952Z,10.10
2023-04-30T03:57:42.910Z,10.10
2023-04-30T04:00:13.424Z,10.10
2023-04-30T04:02:41.753Z,10.10
2023-04-30T04:05:09.881Z,10.10
2023-04-30T04:07:37.672Z,10.10
2023-04-30T04:10:06.044Z,10.10
2023-04-30T04:12:33.807Z,10.10
2023-04-30T04:15:01.572Z,10.10
2023-04-30T04:17:31.116Z,10.10
2023-04-30T04:19:59.498Z,10.10
2023-04-30T04:22:27.254Z,10.10
2023-04-30T04:24:55.432Z,10.00
2023-04-30T04:27:23.410Z,10.00
2023-04-30T04:29:51.165Z,10.00
2023-04-30T04:32:18.908Z,10.10
2023-04-30T04:34:49.248Z,10.10
2023-04-30T04:37:17.445Z,10.10
2023-04-30T04:39:45.626Z,10.10
2023-04-30T04:42:13.455Z,10.10
2023-04-30T04:44:41.232Z,10.10
2023-04-30T04:47:10.062Z,10.10
2023-04-30T04:49:37.781Z,10.10
2023-04-30T04:52:07.286Z,10.10
2023-04-30T04:54:35.423Z,10.10
2023-04-30T04:57:03.483Z,10.10
2023-04-30T04:59:31.339Z,10.10
2023-04-30T05:01:59.138Z,10.20
2023-04-30T05:04:27.851Z,10.20
2023-04-30T05:06:55.721Z,10.20
2023-04-30T05:09:24.868Z,10.30
2023-04-30T05:11:52.599Z,10.30
2023-04-30T05:14:20.825Z,10.40
2023-04-30T05:16:49.177Z,10.40
2023-04-30T05:19:16.924Z,10.40
2023-04-30T05:21:44.684Z,10.50
2023-04-30T05:24:12.467Z,10.50
2023-04-30T05:26:41.686Z,10.60
2023-04-30T05:29:10.500Z,10.60
2023-04-30T05:31:38.398Z,10.60
2023-04-30T05:34:06.213Z,10.70
2023-04-30T05:36:34.039Z,10.80
2023-04-30T05:39:01.805Z,10.90
2023-04-30T05:41:29.553Z,11.00
2023-04-30T05:43:58.623Z,11.00
2023-04-30T05:46:26.442Z,11.00
2023-04-30T05:48:54.255Z,11.00
2023-04-30T05:51:21.992Z,11.10
2023-04-30T05:53:49.767Z,11.10
2023-04-30T05:56:17.546Z,11.10
2023-04-30T05:58:45.603Z,11.20
2023-04-30T06:01:15.550Z,11.30
2023-04-30T06:03:43.346Z,11.40
2023-04-30T06:06:11.129Z,11.40
2023-04-30T06:08:42.012Z,11.40
2023-04-30T06:11:09.768Z,11.30
2023-04-30T06:13:37.563Z,11.20
2023-04-30T06:16:05.926Z,11.10
2023-04-30T06:18:35.129Z,11.10
2023-04-30T06:21:02.883Z,11.10
2023-04-30T06:23:30.653Z,11.10
2023-04-30T06:25:58.431Z,11.20
2023-04-30T06:28:26.453Z,11.20
2023-04-30T06:30:55.104Z,11.40
2023-04-30T06:33:23.045Z,11.50
2023-04-30T06:35:55.157Z,11.70
2023-04-30T06:38:22.948Z,11.90
2023-04-30T06:40:50.928Z,12.00
2023-04-30T06:43:18.806Z,12.10
2023-04-30T06:45:46.714Z,12.20
2023-04-30T06:48:14.507Z,12.30
2023-04-30T06:50:45.027Z,12.40
2023-04-30T06:53:14.430Z,12.50
2023-04-30T06:55:42.900Z,12.60
2023-04-30T06:58:10.784Z,12.80
2023-04-30T07:00:38.588Z,12.90
2023-04-30T07:03:06.559Z,13.00
2023-04-30T07:05:34.557Z,13.00
2023-04-30T07:08:03.474Z,13.10
2023-04-30T07:10:33.062Z,13.20
2023-04-30T07:13:00.834Z,13.30
2023-04-30T07:15:28.618Z,13.40
2023-04-30T07:17:56.454Z,13.50
2023-04-30T07:20:24.318Z,13.60
2023-04-30T07:22:52.079Z,13.60
2023-04-30T07:25:19.915Z,13.70
2023-04-30T07:27:48.966Z,13.70
2023-04-30T07:30:16.715Z,13.80
2023-04-30T07:32:45.038Z,13.90
2023-04-30T07:35:13.669Z,14.00
2023-04-30T07:37:41.628Z,14.20
2023-04-30T07:40:15.296Z,14.30
2023-04-30T07:42:45.238Z,14.40
2023-04-30T07:45:14.503Z,14.50
2023-04-30T07:47:42.258Z,14.60
2023-04-30T07:50:10.689Z,14.70
2023-04-30T07:52:38.470Z,14.80
2023-04-30T07:55:06.689Z,14.90
2023-04-30T07:57:34.427Z,15.00
2023-04-30T08:00:02.291Z,14.90
2023-04-30T08:02:31.645Z,14.90
2023-04-30T08:04:59.493Z,15.10
2023-04-30T08:07:27.270Z,15.30
2023-04-30T08:09:55.094Z,15.50
2023-04-30T08:12:22.978Z,15.70
2023-04-30T08:14:50.770Z,16.00
2023-04-30T08:17:18.534Z,16.20
2023-04-30T08:19:47.660Z,16.30
2023-04-30T08:22:15.441Z,16.40
2023-04-30T08:24:43.194Z,16.50
2023-04-30T08:27:10.933Z,16.60
2023-04-30T08:29:38.695Z,16.60
2023-04-30T08:32:06.646Z,16.70
2023-04-30T08:34:34.920Z,16.80
2023-04-30T08:37:04.042Z,16.80
2023-04-30T08:39:31.776Z,16.50
2023-04-30T08:42:03.630Z,16.20
2023-04-30T08:44:33.204Z,16.10
2023-04-30T08:47:02.413Z,16.20
2023-04-30T08:49:32.771Z,16.20
2023-04-30T08:52:01.278Z,16.10
2023-04-30T08:54:32.521Z,16.00
2023-04-30T08:57:00.389Z,16.00
2023-04-30T08:59:28.436Z,16.00
2023-04-30T09:01:56.266Z,16.20
2023-04-30T09:04:24.330Z,16.30
2023-04-30T09:06:58.745Z,16.40
2023-04-30T09:09:31.667Z,16.70
2023-04-30T09:12:19.019Z,16.90
2023-04-30T09:15:01.256Z,16.90
2023-04-30T09:17:29.329Z,16.70
2023-04-30T09:20:07.960Z,16.70
2023-04-30T09:22:37.642Z,16.80
2023-04-30T09:25:08.147Z,17.00
2023-04-30T09:27:35.955Z,17.10
2023-04-30T09:30:04.517Z,17.30
2023-04-30T09:32:32.640Z,17.50
2023-04-30T09:35:00.464Z,17.70
2023-04-30T09:37:37.324Z,17.70
2023-04-30T09:40:07.878Z,17.50
2023-04-30T09:42:35.835Z,17.30
2023-04-30T09:45:06.510Z,17.40
2023-04-30T09:47:34.341Z,17.50
2023-04-30T09:50:02.171Z,17.60
2023-04-30T09:52:29.928Z,17.80
2023-04-30T09:54:57.694Z,17.70
2023-04-30T09:57:31.629Z,17.80
2023-04-30T10:00:01.783Z,18.10
2023-04-30T10:02:29.808Z,18.50
2023-04-30T10:04:59.991Z,18.80
2023-04-30T10:07:35.295Z,19.00
2023-04-30T10:10:08.176Z,19.10
2023-04-30T10:12:41.108Z,19.10
2023-04-30T10:15:15.355Z,19.10
2023-04-30T10:17:45.907Z,19.20
2023-04-30T10:20:14.568Z,19.20
2023-04-30T10:22:43.632Z,19.30
2023-04-30T10:25:13.364Z,19.50
2023-04-30T10:27:42.557Z,19.70
2023-04-30T10:30:12.387Z,19.70
2023-04-30T10:32:49.698Z,19.60
2023-04-30T10:35:21.992Z,19.60
2023-04-30T10:37:55.821Z,19.50
2023-04-30T10:40:23.544Z,19.40
2023-04-30T10:42:55.514Z,19.20
2023-04-30T10:45:36.816Z,19.00
2023-04-30T10:48:05.069Z,18.80
2023-04-30T10:50:33.184Z,18.60
2023-04-30T10:53:04.609Z,18.80
2023-04-30T10:55:32.978Z,19.00
2023-04-30T10:58:02.103Z,19.10
2023-04-30T11:00:31.784Z,19.40
2023-04-30T11:03:04.761Z,19.40
2023-04-30T11:05:38.683Z,19.60
2023-04-30T11:08:06.922Z,19.60
2023-04-30T11:10:36.387Z,19.90
2023-04-30T11:13:07.516Z,20.20
2023-04-30T11:15:41.282Z,20.60
2023-04-30T11:18:09.902Z,20.70
2023-04-30T11:20:41.796Z,20.80
2023-04-30T11:23:10.959Z,20.60
2023-04-30T11:25:43.117Z,20.40
2023-04-30T11:28:19.644Z,20.50
2023-04-30T11:30:52.527Z,20.50
2023-04-30T11:33:20.819Z,20.50
2023-04-30T11:35:51.986Z,20.20
2023-04-30T11:38:21.810Z,19.80
2023-04-30T11:40:50.048Z,19.40
2023-04-30T11:43:26.732Z,19.30
2023-04-30T11:46:02.748Z,19.10
2023-04-30T11:48:34.863Z,18.80
2023-04-30T11:51:10.525Z,18.80
2023-04-30T11:53:38.286Z,18.50
2023-04-30T11:56:07.101Z,18.30
2023-04-30T11:58:37.948Z,18.60
2023-04-30T12:01:06.667Z,18.80
2023-04-30T12:03:34.754Z,19.00
2023-04-30T12:06:02.895Z,18.80
2023-04-30T12:08:30.747Z,18.80
2023-04-30T12:10:58.517Z,18.80
2023-04-30T12:13:26.279Z,18.70
2023-04-30T12:16:02.874Z,18.60
2023-04-30T12:18:31.002Z,18.80
2023-04-30T12:20:59.374Z,19.10
2023-04-30T12:23:27.215Z,19.50
2023-04-30T12:25:54.996Z,19.90
2023-04-30T12:28:24.838Z,20.10
2023-04-30T12:30:54.569Z,20.20
2023-04-30T12:33:23.815Z,20.30
2023-04-30T12:35:53.919Z,20.40
2023-04-30T12:38:23.221Z,20.60
2023-04-30T12:40:51.190Z,20.70
2023-04-30T12:43:19.582Z,20.80
2023-04-30T12:45:51.328Z,20.80
2023-04-30T12:48:20.683Z,20.60
2023-04-30T12:51:00.933Z,20.30
2023-04-30T12:53:29.497Z,20.10
2023-04-30T12:56:15.732Z,19.70
2023-04-30T12:58:45.419Z,19.30
2023-04-30T13:01:15.055Z,19.10
2023-04-30T13:03:43.051Z,18.80
2023-04-30T13:06:12.356Z,18.60
2023-04-30T13:08:56.239Z,18.50
2023-04-30T13:11:25.839Z,18.80
2023-04-30T13:13:55.089Z,19.20
2023-04-30T13:16:24.377Z,19.50
2023-04-30T13:18:52.581Z,19.70
2023-04-30T13:21:22.343Z,19.80
2023-04-30T13:23:53.458Z,20.00
2023-04-30T13:26:22.852Z,20.00
2023-04-30T13:28:50.608Z,19.90
2023-04-30T13:31:18.514Z,19.90
2023-04-30T13:33:46.337Z,20.00
2023-04-30T13:36:14.224Z,20.10
2023-04-30T13:38:43.640Z,20.10
2023-04-30T13:41:11.430Z,20.10
2023-04-30T13:43:42.506Z,19.80
2023-04-30T13:46:10.942Z,19.80
2023-04-30T13:48:38.934Z,19.90
2023-04-30T13:51:06.934Z,20.10
2023-04-30T13:53:35.600Z,20.20
2023-04-30T13:56:05.617Z,20.20
2023-04-30T13:58:33.441Z,20.00
2023-04-30T14:01:01.268Z,19.60
2023-04-30T14:03:29.134Z,19.20
2023-04-30T14:05:57.764Z,18.90
2023-04-30T14:08:25.580Z,18.80
2023-04-30T14:10:53.309Z,18.60
2023-04-30T14:13:22.402Z,18.50
2023-04-30T14:15:50.231Z,18.60
2023-04-30T14:18:22.398Z,18.80
2023-04-30T14:20:50.489Z,19.00
2023-04-30T14:23:18.248Z,19.20
2023-04-30T14:25:46.005Z,19.30
2023-04-30T14:28:13.759Z,19.30
2023-04-30T14:30:43.566Z,19.30
2023-04-30T14:33:12.602Z,19.10
2023-04-30T14:35:41.442Z,18.90
2023-04-30T14:38:09.255Z,18.80
2023-04-30T14:40:37.315Z,18.70
2023-04-30T14:43:05.130Z,18.70
2023-04-30T14:45:33.965Z,18.80
2023-04-30T14:48:05.568Z,19.00
2023-04-30T14:50:33.562Z,19.20
2023-04-30T14:53:01.317Z,19.40
2023-04-30T14:55:29.252Z,19.50
2023-04-30T14:57:57.074Z,19.60
2023-04-30T15:00:24.906Z,19.60
2023-04-30T15:02:52.811Z,19.50
2023-04-30T15:05:22.054Z,19.20
2023-04-30T15:07:49.790Z,18.90
2023-04-30T15:10:17.589Z,18.60
2023-04-30T15:12:45.475Z,18.50
2023-04-30T15:15:13.435Z,18.40
2023-04-30T15:17:41.237Z,18.40
2023-04-30T15:20:09.933Z,18.50
2023-04-30T15:22:39.026Z,18.60
2023-04-30T15:25:07.621Z,18.60
2023-04-30T15:27:36.682Z,18.70
2023-04-30T15:30:05.185Z,18.70
2023-04-30T15:32:32.985Z,18.70
2023-04-30T15:35:00.731Z,18.60
2023-04-30T15:37:28.524Z,18.50
2023-04-30T15:39:57.770Z,18.20
2023-04-30T15:42:25.624Z,18.00
2023-04-30T15:44:53.382Z,17.80
2023-04-30T15:47:23.737Z,17.60
2023-04-30T15:49:51.815Z,17.50
2023-04-30T15:52:20.314Z,17.50
2023-04-30T15:54:48.104Z,17.50
2023-04-30T15:57:17.375Z,17.60
2023-04-30T15:59:45.243Z,17.60
2023-04-30T16:02:13.002Z,17.70
2023-04-30T16:04:41.316Z,17.80
2023-04-30T16:07:09.106Z,17.80
2023-04-30T16:09:36.970Z,17.90
2023-04-30T16:12:05.181Z,18.00
2023-04-30T16:14:34.283Z,18.00
2023-04-30T16:17:02.536Z,18.00
2023-04-30T16:19:30.330Z,17.90
2023-04-30T16:21:58.377Z,17.80
2023-04-30T16:24:26.196Z,17.70
2023-04-30T16:26:53.965Z,17.50
2023-04-30T16:29:21.707Z,17.30
2023-04-30T16:31:50.861Z,17.20
2023-04-30T16:34:18.660Z,17.00
2023-04-30T16:36:46.393Z,16.90
2023-04-30T16:39:16.874Z,16.80
2023-04-30T16:41:44.916Z,16.70
2023-04-30T16:44:12.746Z,16.60
2023-04-30T16:46:40.505Z,16.50
2023-04-30T16:49:09.951Z,16.40
2023-04-30T16:51:37.727Z,16.30
2023-04-30T16:54:05.483Z,16.20
2023-04-30T16:56:33.245Z,16.20
2023-04-30T16:59:01.003Z,16.20
2023-04-30T17:01:28.965Z,16.20
2023-04-30T17:03:56.776Z,16.20
2023-04-30T17:06:26.285Z,16.20
2023-04-30T17:08:54.947Z,16.30
2023-04-30T17:11:24.132Z,16.20
2023-04-30T17:13:53.437Z,16.20
2023-04-30T17:16:21.293Z,16.10
2023-04-30T17:18:49.094Z,16.00
2023-04-30T17:21:17.059Z,15.90
2023-04-30T17:23:46.146Z,15.90
2023-04-30T17:26:13.891Z,15.80
2023-04-30T17:28:41.636Z,15.70
2023-04-30T17:31:09.516Z,15.60
2023-04-30T17:33:37.682Z,15.60
2023-04-30T17:36:05.918Z,15.50
2023-04-30T17:38:33.743Z,15.40
2023-04-30T17:41:02.823Z,15.30
2023-04-30T17:43:30.704Z,15.20
2023-04-30T17:45:58.545Z,15.20
2023-04-30T17:48:27.397Z,15.10
2023-04-30T17:50:55.604Z,15.00
2023-04-30T17:53:23.348Z,14.90
2023-04-30T17:55:51.082Z,14.90
2023-04-30T17:58:20.212Z,14.80
2023-04-30T18:00:48.371Z,14.60
2023-04-30T18:03:16.228Z,14.70
2023-04-30T18:05:45.061Z,14.60
2023-04-30T18:08:12.856Z,14.40
2023-04-30T18:10:40.648Z,14.40
2023-04-30T18:13:08.432Z,14.20
2023-04-30T18:15:37.655Z,14.10
2023-04-30T18:18:05.713Z,14.00
2023-04-30T18:20:33.554Z,13.90
2023-04-30T18:23:01.326Z,13.80
2023-04-30T18:25:29.128Z,13.80
2023-04-30T18:27:56.865Z,13.90
2023-04-30T18:30:24.678Z,13.90
2023-04-30T18:32:53.787Z,13.80
2023-04-30T18:35:22.056Z,13.90
2023-04-30T18:37:49.975Z,13.80
2023-04-30T18:40:17.761Z,13.80
2023-04-30T18:42:45.535Z,13.80
2023-04-30T18:45:14.677Z,13.80
2023-04-30T18:47:42.765Z,13.80
2023-04-30T18:50:16.851Z,13.60
2023-04-30T18:52:45.315Z,13.50
2023-04-30T18:55:14.271Z,13.40
2023-04-30T18:57:43.129Z,13.30
2023-04-30T19:00:14.051Z,13.20
2023-04-30T19:02:42.680Z,13.20
2023-04-30T19:05:12.094Z,13.10
2023-04-30T19:07:39.838Z,13.10
2023-04-30T19:10:08.222Z,13.00
2023-04-30T19:12:35.999Z,13.00
2023-04-30T19:15:03.913Z,12.90
2023-04-30T19:17:31.679Z,12.90
2023-04-30T19:19:59.980Z,12.80
2023-04-30T19:22:29.052Z,12.80
2023-04-30T19:24:56.804Z,12.80
2023-04-30T19:27:25.088Z,12.80
2023-04-30T19:29:53.400Z,12.70
2023-04-30T19:32:21.967Z,12.70
2023-04-30T19:34:49.777Z,12.60
2023-04-30T19:37:17.602Z,12.50
2023-04-30T19:39:46.707Z,12.40
2023-04-30T19:42:14.519Z,12.40
2023-04-30T19:44:42.275Z,12.40
2023-04-30T19:47:10.050Z,12.30
2023-04-30T19:49:37.890Z,12.10
2023-04-30T19:52:07.621Z,12.10
2023-04-30T19:54:35.585Z,12.10
2023-04-30T19:57:04.935Z,12.00
2023-04-30T19:59:32.733Z,12.00
2023-04-30T20:02:00.937Z,12.00
2023-04-30T20:04:28.711Z,11.90
2023-04-30T20:06:58.170Z,11.90
2023-04-30T20:09:26.229Z,11.80
2023-04-30T20:11:54.902Z,11.70
2023-04-30T20:14:24.244Z,11.60
2023-04-30T20:16:54.809Z,11.50
2023-04-30T20:19:22.973Z,11.50
2023-04-30T20:21:51.165Z,11.40
2023-04-30T20:24:19.073Z,11.40
2023-04-30T20:26:46.846Z,11.30
2023-04-30T20:29:14.599Z,11.30
2023-04-30T20:31:43.779Z,11.30
2023-04-30T20:34:11.742Z,11.20
2023-04-30T20:36:39.812Z,11.20
2023-04-30T20:39:08.448Z,11.30
2023-04-30T20:41:36.605Z,11.30
2023-04-30T20:44:04.849Z,11.30
2023-04-30T20:46:32.722Z,11.30
2023-04-30T20:49:04.378Z,11.30
2023-04-30T20:51:32.208Z,11.30
2023-04-30T20:53:59.946Z,11.30
2023-04-30T20:56:28.141Z,11.20
2023-04-30T20:58:56.026Z,11.10
2023-04-30T21:01:23.875Z,11.10
2023-04-30T21:03:51.692Z,11.10
2023-04-30T21:06:20.921Z,11.00
2023-04-30T21:08:48.799Z,10.90
2023-04-30T21:11:16.576Z,10.80
2023-04-30T21:13:44.335Z,10.70
2023-04-30T21:16:12.305Z,10.60
2023-04-30T21:18:40.085Z,10.50
2023-04-30T21:21:09.619Z,10.30
2023-04-30T21:23:39.107Z,10.20
2023-04-30T21:26:06.879Z,10.10
2023-04-30T21:28:34.704Z,10.10
2023-04-30T21:31:05.724Z,10.10
2023-04-30T21:33:33.645Z,10.10
2023-04-30T21:36:01.428Z,10.10
2023-04-30T21:38:29.314Z,10.20
2023-04-30T21:40:58.417Z,10.20
2023-04-30T21:43:26.228Z,10.20
2023-04-30T21:45:54.056Z,10.20
2023-04-30T21:48:21.818Z,10.10
2023-04-30T21:50:49.864Z,10.10
2023-04-30T21:53:18.304Z,10.10
2023-04-30T21:55:48.034Z,10.00
2023-04-30T21:58:17.106Z,10.00
2023-04-30T22:00:45.309Z,10.00
2023-04-30T22:03:15.262Z,10.00
2023-04-30T22:05:43.468Z,10.00
2023-04-30T22:08:11.219Z,10.00
2023-04-30T22:10:39.012Z,9.90
2023-04-30T22:13:06.943Z,9.90
2023-04-30T22:15:47.064Z,9.90
2023-04-30T22:18:16.088Z,9.90
2023-04-30T22:20:43.853Z,9.90
2023-04-30T22:23:11.655Z,9.80
2023-04-30T22:25:39.550Z,9.80
2023-04-30T22:28:07.383Z,9.70
2023-04-30T22:30:36.630Z,9.70
2023-04-30T22:33:04.578Z,9.60
2023-04-30T22:35:32.733Z,9.50
2023-04-30T22:38:01.500Z,9.50
2023-04-30T22:40:29.310Z,9.50
2023-04-30T22:42:57.605Z,9.50
2023-04-30T22:45:25.718Z,9.50
2023-04-30T22:47:55.255Z,9.50
2023-04-30T22:50:23.123Z,9.50
2023-04-30T22:52:51.315Z,9.60
2023-04-30T22:55:19.508Z,9.60
2023-04-30T22:57:47.292Z,9.60
2023-04-30T23:00:16.082Z,9.70
2023-04-30T23:02:44.182Z,9.70
2023-04-30T23:05:13.485Z,9.60
2023-04-30T23:07:41.258Z,9.70
2023-04-30T23:10:09.631Z,9.80
2023-04-30T23:12:37.379Z,9.70
2023-04-30T23:15:06.170Z,9.70
2023-04-30T23:17:34.110Z,9.70
2023-04-30T23:20:01.848Z,9.80
2023-04-30T23:22:31.358Z,9.80
2023-04-30T23:24:59.204Z,9.70
2023-04-30T23:27:28.274Z,9.60
2023-04-30T23:29:57.440Z,9.60
2023-04-30T23:32:26.124Z,9.60
2023-04-30T23:34:54.018Z,9.50
2023-04-30T23:37:21.766Z,9.60
2023-04-30T23:39:50.942Z,9.60
2023-04-30T23:42:18.697Z,9.60
2023-04-30T23:44:46.459Z,9.50
2023-04-30T23:47:14.211Z,9.50
2023-04-30T23:49:44.698Z,9.50
2023-04-30T23:52:14.296Z,9.50
2023-04-30T23:54:42.315Z,9.60
2023-04-30T23:57:11.429Z,8.60
2023-04-30T23:59:39.485Z,9.50
